createdAt,value
2023-07-29T00:01:03.794Z,0
2023-07-29T00:06:03.699Z,0
2023-07-29T00:11:03.742Z,0
2023-07-29T00:16:03.781Z,0
2023-07-29T00:21:03.758Z,0
2023-07-29T00:26:03.760Z,0
2023-07-29T00:31:03.763Z,0
2023-07-29T00:36:03.755Z,0
2023-07-29T00:41:03.754Z,0
2023-07-29T00:46:03.855Z,0
2023-07-29T00:51:04.288Z,0
2023-07-29T00:56:03.763Z,0
2023-07-29T01:01:03.746Z,0
2023-07-29T01:06:03.716Z,0
2023-07-29T01:11:03.792Z,0
2023-07-29T01:16:03.796Z,0
2023-07-29T01:21:04.213Z,0
2023-07-29T01:26:03.778Z,0
2023-07-29T01:31:03.739Z,0
2023-07-29T01:36:03.784Z,0
2023-07-29T01:41:03.741Z,0
2023-07-29T01:46:03.837Z,0
2023-07-29T01:51:03.802Z,0
2023-07-29T01:56:03.759Z,0
2023-07-29T02:01:03.849Z,0
2023-07-29T02:06:03.793Z,0
2023-07-29T02:11:03.781Z,0
2023-07-29T02:16:03.757Z,0
2023-07-29T02:21:03.782Z,0
2023-07-29T02:26:03.821Z,0
2023-07-29T02:31:03.842Z,0
2023-07-29T02:36:03.787Z,0
2023-07-29T02:41:03.780Z,0
2023-07-29T02:46:03.871Z,0
2023-07-29T02:51:03.865Z,0
2023-07-29T02:56:03.797Z,0
2023-07-29T03:01:03.913Z,0
2023-07-29T03:06:03.758Z,0
2023-07-29T03:11:03.829Z,0
2023-07-29T03:16:03.804Z,0
2023-07-29T03:21:03.793Z,0
2023-07-29T03:26:03.798Z,0
2023-07-29T03:31:03.816Z,0
2023-07-29T03:36:03.782Z,0
2023-07-29T03:41:03.780Z,0
2023-07-29T03:46:03.869Z,0
2023-07-29T03:51:03.800Z,0
2023-07-29T03:56:03.836Z,0
2023-07-29T04:01:03.951Z,0
2023-07-29T04:06:03.799Z,266
2023-07-29T04:11:03.826Z,267
2023-07-29T04:16:03.865Z,266
2023-07-29T04:21:03.813Z,274
2023-07-29T04:26:03.840Z,270
2023-07-29T04:31:03.839Z,280
2023-07-29T04:36:03.834Z,276
2023-07-29T04:41:03.797Z,269
2023-07-29T04:46:03.863Z,271
2023-07-29T04:51:03.803Z,274
2023-07-29T04:56:03.807Z,284
2023-07-29T05:01:03.890Z,289
2023-07-29T05:06:03.783Z,291
2023-07-29T05:11:03.869Z,287
2023-07-29T05:16:03.862Z,279
2023-07-29T05:21:03.862Z,282
2023-07-29T05:26:03.864Z,287
2023-07-29T05:31:03.906Z,287
2023-07-29T05:36:03.838Z,277
2023-07-29T05:41:03.950Z,291
2023-07-29T05:46:03.851Z,294
2023-07-29T05:51:03.893Z,290
2023-07-29T05:56:03.990Z,295
2023-07-29T06:01:03.872Z,287
2023-07-29T06:06:03.840Z,272
2023-07-29T06:11:03.832Z,274
2023-07-29T06:16:03.833Z,273
2023-07-29T06:21:03.827Z,281
2023-07-29T06:26:03.877Z,274
2023-07-29T06:31:03.835Z,273
2023-07-29T06:36:03.836Z,274
2023-07-29T06:41:03.820Z,273
2023-07-29T06:46:04.083Z,277
2023-07-29T06:51:03.803Z,286
2023-07-29T06:56:03.889Z,290
2023-07-29T07:01:03.846Z,295
2023-07-29T07:06:03.963Z,298
2023-07-29T07:11:03.868Z,298
2023-07-29T07:16:03.888Z,306
2023-07-29T07:21:03.843Z,314
2023-07-29T07:26:04.049Z,294
2023-07-29T07:31:03.881Z,310
2023-07-29T07:36:03.860Z,322
2023-07-29T07:41:03.849Z,347
2023-07-29T07:46:03.885Z,320
2023-07-29T07:51:03.867Z,312
2023-07-29T07:56:03.935Z,299
2023-07-29T08:01:03.960Z,282
2023-07-29T08:06:03.844Z,311
2023-07-29T08:11:03.866Z,306
2023-07-29T08:16:03.993Z,294
2023-07-29T08:21:03.916Z,291
2023-07-29T08:26:03.855Z,310
2023-07-29T08:31:03.937Z,297
2023-07-29T08:36:03.929Z,282
2023-07-29T08:41:03.882Z,283
2023-07-29T08:46:03.895Z,311
2023-07-29T08:51:03.877Z,282
2023-07-29T08:56:03.873Z,270
2023-07-29T09:01:03.956Z,306
2023-07-29T09:06:03.884Z,0
2023-07-29T09:11:03.889Z,269
2023-07-29T09:16:03.960Z,279
2023-07-29T09:21:03.874Z,283
2023-07-29T09:26:03.925Z,279
2023-07-29T09:31:03.987Z,276
2023-07-29T09:36:03.876Z,271
2023-07-29T09:41:03.875Z,293
2023-07-29T09:46:03.941Z,319
2023-07-29T09:51:03.890Z,353
2023-07-29T09:56:03.862Z,330
2023-07-29T10:01:03.879Z,499
2023-07-29T10:06:03.884Z,464
2023-07-29T10:11:03.944Z,332
2023-07-29T10:16:04.156Z,322
2023-07-29T10:21:03.915Z,302
2023-07-29T10:26:03.903Z,341
2023-07-29T10:31:03.869Z,325
2023-07-29T10:36:03.872Z,435
2023-07-29T10:41:03.898Z,537
2023-07-29T10:46:15.875Z,452
2023-07-29T10:51:03.912Z,595
2023-07-29T10:56:03.908Z,640
2023-07-29T11:01:03.901Z,466
2023-07-29T11:06:03.937Z,623
2023-07-29T11:11:03.909Z,664
2023-07-29T11:16:03.977Z,677
2023-07-29T11:21:03.960Z,1317
2023-07-29T11:26:03.920Z,359
2023-07-29T11:31:03.940Z,438
2023-07-29T11:36:03.984Z,363
2023-07-29T11:41:03.941Z,294
2023-07-29T11:46:03.880Z,324
2023-07-29T11:51:03.963Z,341
2023-07-29T11:56:03.948Z,381
2023-07-29T12:01:03.983Z,405
2023-07-29T12:06:03.962Z,403
2023-07-29T12:11:03.902Z,371
2023-07-29T12:16:03.958Z,365
2023-07-29T12:21:03.962Z,439
2023-07-29T12:26:03.998Z,445
2023-07-29T12:31:03.993Z,376
2023-07-29T12:36:03.970Z,352
2023-07-29T12:41:04.032Z,349
2023-07-29T12:46:04.009Z,331
2023-07-29T12:51:03.948Z,307
2023-07-29T12:56:03.923Z,362
2023-07-29T13:01:04.063Z,311
2023-07-29T13:06:03.940Z,327
2023-07-29T13:11:04.005Z,307
2023-07-29T13:16:04.036Z,345
2023-07-29T13:21:03.983Z,340
2023-07-29T13:26:03.984Z,372
2023-07-29T13:31:03.934Z,357
2023-07-29T13:36:04.007Z,354
2023-07-29T13:41:03.987Z,355
2023-07-29T13:46:04.060Z,326
2023-07-29T13:51:03.934Z,327
2023-07-29T13:56:03.959Z,308
2023-07-29T14:01:04.051Z,338
2023-07-29T14:06:03.988Z,345
2023-07-29T14:11:04.248Z,322
2023-07-29T14:16:04.088Z,337
2023-07-29T14:21:03.933Z,335
2023-07-29T14:26:03.981Z,353
2023-07-29T14:31:04.017Z,326
2023-07-29T14:36:04.012Z,323
2023-07-29T14:41:03.970Z,306
2023-07-29T14:46:04.018Z,330
2023-07-29T14:51:03.999Z,326
2023-07-29T14:56:04.021Z,333
2023-07-29T15:01:04.026Z,329
2023-07-29T15:06:04.193Z,308
2023-07-29T15:11:03.995Z,293
2023-07-29T15:16:03.978Z,291
2023-07-29T15:21:03.975Z,286
2023-07-29T15:26:04.179Z,286
2023-07-29T15:31:04.000Z,293
2023-07-29T15:36:04.022Z,293
2023-07-29T15:41:04.039Z,288
2023-07-29T15:46:04.089Z,293
2023-07-29T15:51:04.075Z,300
2023-07-29T15:56:04.093Z,294
2023-07-29T16:01:04.005Z,291
2023-07-29T16:06:04.080Z,284
2023-07-29T16:11:03.989Z,287
2023-07-29T16:16:04.023Z,285
2023-07-29T16:21:04.026Z,285
2023-07-29T16:26:04.024Z,298
2023-07-29T16:31:04.129Z,298
2023-07-29T16:36:04.012Z,293
2023-07-29T16:41:19.775Z,301
2023-07-29T16:46:04.056Z,297
2023-07-29T16:51:03.977Z,293
2023-07-29T16:56:04.049Z,293
2023-07-29T17:01:04.034Z,301
2023-07-29T17:06:03.999Z,301
2023-07-29T17:11:04.042Z,287
2023-07-29T17:16:04.028Z,287
2023-07-29T17:21:04.032Z,282
2023-07-29T17:26:03.987Z,286
2023-07-29T17:31:04.072Z,282
2023-07-29T17:36:04.019Z,281
2023-07-29T17:41:04.018Z,278
2023-07-29T17:46:04.054Z,280
2023-07-29T17:51:04.021Z,274
2023-07-29T17:56:04.228Z,269
2023-07-29T18:01:04.252Z,268
2023-07-29T18:06:04.079Z,268
2023-07-29T18:11:04.035Z,268
2023-07-29T18:16:04.032Z,266
2023-07-29T18:21:04.013Z,0
2023-07-29T18:26:04.032Z,0
2023-07-29T18:31:04.572Z,265
2023-07-29T18:36:04.116Z,0
2023-07-29T18:41:04.078Z,0
2023-07-29T18:46:04.320Z,0
2023-07-29T18:51:04.130Z,0
2023-07-29T18:56:04.042Z,0
2023-07-29T19:01:04.007Z,0
2023-07-29T19:06:04.032Z,0
2023-07-29T19:11:04.121Z,0
2023-07-29T19:16:04.042Z,0
2023-07-29T19:21:04.077Z,0
2023-07-29T19:26:04.037Z,0
2023-07-29T19:31:04.092Z,0
2023-07-29T19:36:04.091Z,0
2023-07-29T19:41:04.068Z,0
2023-07-29T19:51:04.127Z,0
2023-07-29T19:56:04.056Z,0
2023-07-29T20:01:04.131Z,0
2023-07-29T20:06:04.094Z,0
2023-07-29T20:11:04.118Z,0
2023-07-29T20:16:04.143Z,0
2023-07-29T20:21:04.072Z,0
2023-07-29T20:26:04.288Z,0
2023-07-29T20:31:04.112Z,0
2023-07-29T20:36:05.299Z,0
2023-07-29T20:41:04.083Z,0
2023-07-29T20:46:04.129Z,0
2023-07-29T20:51:04.117Z,0
2023-07-29T21:01:04.090Z,0
2023-07-29T21:06:04.112Z,0
2023-07-29T21:11:04.042Z,0
2023-07-29T21:16:04.113Z,0
2023-07-29T21:21:04.168Z,0
2023-07-29T21:26:04.078Z,0
2023-07-29T21:31:05.135Z,0
2023-07-29T21:36:05.105Z,0
2023-07-29T21:41:05.093Z,0
2023-07-29T21:46:05.102Z,0
2023-07-29T21:51:05.087Z,0
2023-07-29T21:56:05.113Z,0
2023-07-29T22:01:05.234Z,0
2023-07-29T22:06:05.141Z,0
2023-07-29T22:11:05.141Z,0
2023-07-29T22:16:05.170Z,0
2023-07-29T22:21:05.146Z,0
2023-07-29T22:26:05.152Z,0
2023-07-29T22:31:05.115Z,0
2023-07-29T22:36:05.097Z,0
2023-07-29T22:41:05.097Z,0
2023-07-29T22:46:05.156Z,0
2023-07-29T22:51:05.124Z,0
2023-07-29T22:56:05.105Z,0
2023-07-29T23:01:05.142Z,0
2023-07-29T23:06:05.137Z,0
2023-07-29T23:11:05.174Z,0
2023-07-29T23:16:05.161Z,0
2023-07-29T23:21:05.153Z,0
2023-07-29T23:26:05.152Z,0
2023-07-29T23:31:05.186Z,0
2023-07-29T23:36:05.142Z,0
2023-07-29T23:41:05.158Z,0
2023-07-29T23:46:05.149Z,0
2023-07-29T23:51:05.091Z,0
2023-07-29T23:56:05.138Z,0
